sensor_id;sensor_type;location;lat;lon;timestamp;temperature;humidity
66582;SHT31;53438;48.898;2.308;2024-01-15T00:00:17;1.96;81.39
66582;SHT31;53438;48.898;2.308;2024-01-15T00:02:43;2.01;81.30
66582;SHT31;53438;48.898;2.308;2024-01-15T00:05:08;2.03;81.18
66582;SHT31;53438;48.898;2.308;2024-01-15T00:07:35;2.03;81.08
66582;SHT31;53438;48.898;2.308;2024-01-15T00:10:00;1.99;81.18
66582;SHT31;53438;48.898;2.308;2024-01-15T00:12:26;1.99;81.32
66582;SHT31;53438;48.898;2.308;2024-01-15T00:14:51;2.01;81.28
66582;SHT31;53438;48.898;2.308;2024-01-15T00:17:17;2.01;81.39
66582;SHT31;53438;48.898;2.308;2024-01-15T00:19:42;2.01;81.36
66582;SHT31;53438;48.898;2.308;2024-01-15T00:22:07;1.99;81.42
66582;SHT31;53438;48.898;2.308;2024-01-15T00:24:33;1.99;81.41
66582;SHT31;53438;48.898;2.308;2024-01-15T00:26:58;1.95;81.64
66582;SHT31;53438;48.898;2.308;2024-01-15T00:29:23;1.94;81.94
66582;SHT31;53438;48.898;2.308;2024-01-15T00:31:49;1.95;81.88
66582;SHT31;53438;48.898;2.308;2024-01-15T00:34:14;1.92;81.93
66582;SHT31;53438;48.898;2.308;2024-01-15T00:36:39;1.99;81.92
66582;SHT31;53438;48.898;2.308;2024-01-15T00:39:05;2.01;81.84
66582;SHT31;53438;48.898;2.308;2024-01-15T00:41:31;2.01;81.81
66582;SHT31;53438;48.898;2.308;2024-01-15T00:43:58;2.01;81.91
66582;SHT31;53438;48.898;2.308;2024-01-15T00:46:23;2.01;81.99
66582;SHT31;53438;48.898;2.308;2024-01-15T00:48:49;2.02;82.02
66582;SHT31;53438;48.898;2.308;2024-01-15T00:51:14;2.05;82.03
66582;SHT31;53438;48.898;2.308;2024-01-15T00:53:40;2.05;81.99
66582;SHT31;53438;48.898;2.308;2024-01-15T00:56:05;2.07;81.93
66582;SHT31;53438;48.898;2.308;2024-01-15T00:58:30;2.10;81.97
66582;SHT31;53438;48.898;2.308;2024-01-15T04:02:50;2.07;86.66
66582;SHT31;53438;48.898;2.308;2024-01-15T04:05:15;2.16;86.57
66582;SHT31;53438;48.898;2.308;2024-01-15T04:07:41;2.16;86.61
66582;SHT31;53438;48.898;2.308;2024-01-15T04:10:06;2.09;87.31
66582;SHT31;53438;48.898;2.308;2024-01-15T04:12:32;2.10;87.39
66582;SHT31;53438;48.898;2.308;2024-01-15T04:14:57;2.13;87.42
66582;SHT31;53438;48.898;2.308;2024-01-15T04:17:22;2.17;87.37
66582;SHT31;53438;48.898;2.308;2024-01-15T04:19:48;2.22;87.31
66582;SHT31;53438;48.898;2.308;2024-01-15T04:22:13;2.23;87.16
66582;SHT31;53438;48.898;2.308;2024-01-15T04:24:39;2.23;87.31
66582;SHT31;53438;48.898;2.308;2024-01-15T04:27:04;2.25;87.59
66582;SHT31;53438;48.898;2.308;2024-01-15T04:29:29;2.27;87.59
66582;SHT31;53438;48.898;2.308;2024-01-15T04:31:55;2.29;87.47
66582;SHT31;53438;48.898;2.308;2024-01-15T04:34:20;2.23;87.33
66582;SHT31;53438;48.898;2.308;2024-01-15T04:36:45;2.27;87.38
66582;SHT31;53438;48.898;2.308;2024-01-15T04:39:11;2.34;87.34
66582;SHT31;53438;48.898;2.308;2024-01-15T04:41:36;2.22;87.07
66582;SHT31;53438;48.898;2.308;2024-01-15T04:44:02;2.27;87.28
66582;SHT31;53438;48.898;2.308;2024-01-15T04:46:27;2.33;87.14
66582;SHT31;53438;48.898;2.308;2024-01-15T04:48:52;2.36;87.06
66582;SHT31;53438;48.898;2.308;2024-01-15T04:51:18;2.37;87.01
66582;SHT31;53438;48.898;2.308;2024-01-15T04:53:44;2.38;87.03
66582;SHT31;53438;48.898;2.308;2024-01-15T04:56:09;2.46;86.88
66582;SHT31;53438;48.898;2.308;2024-01-15T04:58:34;2.46;86.91
66582;SHT31;53438;48.898;2.308;2024-01-15T05:01:00;2.44;86.87
66582;SHT31;53438;48.898;2.308;2024-01-15T05:03:25;2.50;86.86
66582;SHT31;53438;48.898;2.308;2024-01-15T05:05:50;2.48;86.93
66582;SHT31;53438;48.898;2.308;2024-01-15T05:08:16;2.53;86.85
66582;SHT31;53438;48.898;2.308;2024-01-15T05:10:41;2.53;87.11
66582;SHT31;53438;48.898;2.308;2024-01-15T05:13:06;2.57;87.12
66582;SHT31;53438;48.898;2.308;2024-01-15T05:15:33;2.57;87.16
66582;SHT31;53438;48.898;2.308;2024-01-15T05:17:58;2.54;87.43
66582;SHT31;53438;48.898;2.308;2024-01-15T05:20:24;2.56;87.64
66582;SHT31;53438;48.898;2.308;2024-01-15T05:22:49;2.56;87.50
66582;SHT31;53438;48.898;2.308;2024-01-15T05:25:14;2.57;87.55
66582;SHT31;53438;48.898;2.308;2024-01-15T05:27:40;2.58;87.69
66582;SHT31;53438;48.898;2.308;2024-01-15T05:30:05;2.58;87.64
66582;SHT31;53438;48.898;2.308;2024-01-15T05:32:32;2.61;87.57
66582;SHT31;53438;48.898;2.308;2024-01-15T05:34:57;2.58;87.28
66582;SHT31;53438;48.898;2.308;2024-01-15T05:37:23;2.61;87.35
66582;SHT31;53438;48.898;2.308;2024-01-15T05:39:48;2.58;87.44
66582;SHT31;53438;48.898;2.308;2024-01-15T05:42:13;2.60;87.40
66582;SHT31;53438;48.898;2.308;2024-01-15T05:44:38;2.57;87.39
66582;SHT31;53438;48.898;2.308;2024-01-15T05:47:04;2.58;87.51
66582;SHT31;53438;48.898;2.308;2024-01-15T05:49:29;2.57;87.57
66582;SHT31;53438;48.898;2.308;2024-01-15T05:51:55;2.57;87.41
66582;SHT31;53438;48.898;2.308;2024-01-15T05:54:20;2.54;87.66
66582;SHT31;53438;48.898;2.308;2024-01-15T05:56:45;2.53;87.76
66582;SHT31;53438;48.898;2.308;2024-01-15T05:59:11;2.56;87.68
66582;SHT31;53438;48.898;2.308;2024-01-15T06:01:36;2.58;87.68
66582;SHT31;53438;48.898;2.308;2024-01-15T06:04:02;2.61;87.65
66582;SHT31;53438;48.898;2.308;2024-01-15T06:06:27;2.60;87.58
66582;SHT31;53438;48.898;2.308;2024-01-15T06:08:52;2.54;87.68
66582;SHT31;53438;48.898;2.308;2024-01-15T06:11:18;2.60;87.76
66582;SHT31;53438;48.898;2.308;2024-01-15T06:13:43;2.60;87.63
66582;SHT31;53438;48.898;2.308;2024-01-15T06:16:15;2.60;87.54
66582;SHT31;53438;48.898;2.308;2024-01-15T06:18:41;2.64;87.57
66582;SHT31;53438;48.898;2.308;2024-01-15T06:21:07;2.68;87.63
66582;SHT31;53438;48.898;2.308;2024-01-15T06:23:32;2.61;87.53
66582;SHT31;53438;48.898;2.308;2024-01-15T06:25:57;2.62;87.54
66582;SHT31;53438;48.898;2.308;2024-01-15T06:28:23;2.61;87.39
66582;SHT31;53438;48.898;2.308;2024-01-15T06:30:48;2.64;87.55
66582;SHT31;53438;48.898;2.308;2024-01-15T06:33:13;2.64;87.61
66582;SHT31;53438;48.898;2.308;2024-01-15T06:35:39;2.64;87.65
66582;SHT31;53438;48.898;2.308;2024-01-15T06:38:04;2.67;87.49
66582;SHT31;53438;48.898;2.308;2024-01-15T06:40:29;2.65;87.65
66582;SHT31;53438;48.898;2.308;2024-01-15T06:42:55;2.68;87.63
66582;SHT31;53438;48.898;2.308;2024-01-15T06:45:20;2.73;87.57
66582;SHT31;53438;48.898;2.308;2024-01-15T06:47:45;2.73;87.53
66582;SHT31;53438;48.898;2.308;2024-01-15T06:50:11;2.73;87.53
66582;SHT31;53438;48.898;2.308;2024-01-15T06:52:36;2.73;87.49
66582;SHT31;53438;48.898;2.308;2024-01-15T06:55:01;2.73;87.52
66582;SHT31;53438;48.898;2.308;2024-01-15T06:57:27;2.75;87.55
66582;SHT31;53438;48.898;2.308;2024-01-15T06:59:52;2.74;87.47
66582;SHT31;53438;48.898;2.308;2024-01-15T07:02:17;2.75;87.53
66582;SHT31;53438;48.898;2.308;2024-01-15T07:04:43;2.74;87.51
66582;SHT31;53438;48.898;2.308;2024-01-15T07:07:08;2.77;87.41
66582;SHT31;53438;48.898;2.308;2024-01-15T07:09:33;2.77;87.57
66582;SHT31;53438;48.898;2.308;2024-01-15T07:11:59;2.77;87.56
66582;SHT31;53438;48.898;2.308;2024-01-15T07:14:24;2.75;87.51
66582;SHT31;53438;48.898;2.308;2024-01-15T07:16:50;2.74;87.45
66582;SHT31;53438;48.898;2.308;2024-01-15T07:19:15;2.75;87.54
66582;SHT31;53438;48.898;2.308;2024-01-15T07:21:40;2.70;87.59
66582;SHT31;53438;48.898;2.308;2024-01-15T07:24:08;2.73;87.57
66582;SHT31;53438;48.898;2.308;2024-01-15T07:26:34;2.75;87.53
66582;SHT31;53438;48.898;2.308;2024-01-15T07:28:59;2.77;87.44
66582;SHT31;53438;48.898;2.308;2024-01-15T07:31:24;2.78;87.52
66582;SHT31;53438;48.898;2.308;2024-01-15T07:33:51;2.83;87.39
66582;SHT31;53438;48.898;2.308;2024-01-15T07:36:16;2.85;87.50
66582;SHT31;53438;48.898;2.308;2024-01-15T07:38:41;2.77;87.40
66582;SHT31;53438;48.898;2.308;2024-01-15T07:41:07;2.78;87.62
66582;SHT31;53438;48.898;2.308;2024-01-15T07:43:33;2.80;87.35
66582;SHT31;53438;48.898;2.308;2024-01-15T07:45:58;2.87;87.46
66582;SHT31;53438;48.898;2.308;2024-01-15T07:48:24;2.85;87.36
66582;SHT31;53438;48.898;2.308;2024-01-15T07:50:49;2.89;87.32
66582;SHT31;53438;48.898;2.308;2024-01-15T07:53:14;2.81;87.30
66582;SHT31;53438;48.898;2.308;2024-01-15T07:55:40;2.83;87.31
66582;SHT31;53438;48.898;2.308;2024-01-15T07:58:05;2.77;87.39
66582;SHT31;53438;48.898;2.308;2024-01-15T08:00:31;2.80;87.38
66582;SHT31;53438;48.898;2.308;2024-01-15T08:02:56;2.83;87.43
66582;SHT31;53438;48.898;2.308;2024-01-15T08:05:21;2.91;87.43
66582;SHT31;53438;48.898;2.308;2024-01-15T08:07:47;2.87;87.03
66582;SHT31;53438;48.898;2.308;2024-01-15T08:10:13;2.88;87.27
66582;SHT31;53438;48.898;2.308;2024-01-15T08:12:39;2.91;87.29
66582;SHT31;53438;48.898;2.308;2024-01-15T08:15:04;2.91;87.29
66582;SHT31;53438;48.898;2.308;2024-01-15T08:17:30;2.92;87.13
66582;SHT31;53438;48.898;2.308;2024-01-15T08:19:57;2.89;87.11
66582;SHT31;53438;48.898;2.308;2024-01-15T08:22:22;2.92;87.02
66582;SHT31;53438;48.898;2.308;2024-01-15T08:24:48;2.92;87.00
66582;SHT31;53438;48.898;2.308;2024-01-15T08:27:14;2.97;86.83
66582;SHT31;53438;48.898;2.308;2024-01-15T08:29:39;2.98;86.89
66582;SHT31;53438;48.898;2.308;2024-01-15T08:32:04;2.99;86.77
66582;SHT31;53438;48.898;2.308;2024-01-15T08:34:30;2.99;86.67
66582;SHT31;53438;48.898;2.308;2024-01-15T08:36:56;3.04;86.71
66582;SHT31;53438;48.898;2.308;2024-01-15T08:39:22;3.06;86.40
66582;SHT31;53438;48.898;2.308;2024-01-15T08:41:47;3.05;86.19
66582;SHT31;53438;48.898;2.308;2024-01-15T08:44:12;3.08;86.45
66582;SHT31;53438;48.898;2.308;2024-01-15T08:46:38;3.06;85.90
66582;SHT31;53438;48.898;2.308;2024-01-15T08:49:03;3.13;85.94
66582;SHT31;53438;48.898;2.308;2024-01-15T08:51:29;3.09;85.17
66582;SHT31;53438;48.898;2.308;2024-01-15T08:53:56;3.15;85.17
66582;SHT31;53438;48.898;2.308;2024-01-15T08:56:21;3.20;85.20
66582;SHT31;53438;48.898;2.308;2024-01-15T08:58:47;3.19;85.06
66582;SHT31;53438;48.898;2.308;2024-01-15T09:01:12;3.13;84.89
66582;SHT31;53438;48.898;2.308;2024-01-15T09:03:37;3.23;85.14
66582;SHT31;53438;48.898;2.308;2024-01-15T09:06:03;3.20;84.99
66582;SHT31;53438;48.898;2.308;2024-01-15T09:08:28;3.23;84.83
66582;SHT31;53438;48.898;2.308;2024-01-15T09:10:54;3.15;84.52
66582;SHT31;53438;48.898;2.308;2024-01-15T09:13:19;3.20;84.51
66582;SHT31;53438;48.898;2.308;2024-01-15T09:15:44;3.22;84.10
66582;SHT31;53438;48.898;2.308;2024-01-15T09:18:10;3.26;83.67
66582;SHT31;53438;48.898;2.308;2024-01-15T09:20:35;3.42;83.99
66582;SHT31;53438;48.898;2.308;2024-01-15T09:23:01;3.29;82.55
66582;SHT31;53438;48.898;2.308;2024-01-15T09:25:26;3.32;82.18
66582;SHT31;53438;48.898;2.308;2024-01-15T09:27:51;3.35;81.86
66582;SHT31;53438;48.898;2.308;2024-01-15T09:30:17;3.32;81.28
66582;SHT31;53438;48.898;2.308;2024-01-15T09:32:42;3.42;81.22
66582;SHT31;53438;48.898;2.308;2024-01-15T09:35:08;3.35;80.65
66582;SHT31;53438;48.898;2.308;2024-01-15T09:37:34;3.37;80.93
66582;SHT31;53438;48.898;2.308;2024-01-15T09:39:59;3.42;81.07
66582;SHT31;53438;48.898;2.308;2024-01-15T09:42:24;3.46;80.85
66582;SHT31;53438;48.898;2.308;2024-01-15T09:44:51;3.44;79.71
66582;SHT31;53438;48.898;2.308;2024-01-15T09:47:17;3.49;79.18
66582;SHT31;53438;48.898;2.308;2024-01-15T09:49:43;3.59;79.19
66582;SHT31;53438;48.898;2.308;2024-01-15T09:52:10;3.64;78.38
66582;SHT31;53438;48.898;2.308;2024-01-15T09:54:36;3.60;77.47
66582;SHT31;53438;48.898;2.308;2024-01-15T09:57:02;3.63;78.09
66582;SHT31;53438;48.898;2.308;2024-01-15T09:59:28;3.73;78.39
66582;SHT31;53438;48.898;2.308;2024-01-15T10:01:55;3.67;77.56
66582;SHT31;53438;48.898;2.308;2024-01-15T10:04:21;3.69;77.48
66582;SHT31;53438;48.898;2.308;2024-01-15T10:06:47;3.63;77.18
66582;SHT31;53438;48.898;2.308;2024-01-15T10:09:13;3.67;77.15
66582;SHT31;53438;48.898;2.308;2024-01-15T10:11:42;3.71;77.10
66582;SHT31;53438;48.898;2.308;2024-01-15T10:14:12;3.77;76.73
66582;SHT31;53438;48.898;2.308;2024-01-15T10:16:41;3.66;75.58
66582;SHT31;53438;48.898;2.308;2024-01-15T10:19:07;3.77;76.02
66582;SHT31;53438;48.898;2.308;2024-01-15T10:21:33;3.76;75.46
66582;SHT31;53438;48.898;2.308;2024-01-15T10:24:01;3.77;75.05
66582;SHT31;53438;48.898;2.308;2024-01-15T10:26:28;3.76;75.09
66582;SHT31;53438;48.898;2.308;2024-01-15T10:28:53;3.78;74.48
66582;SHT31;53438;48.898;2.308;2024-01-15T10:31:18;3.83;73.99
66582;SHT31;53438;48.898;2.308;2024-01-15T10:33:50;3.91;74.80
66582;SHT31;53438;48.898;2.308;2024-01-15T10:36:17;3.99;73.02
66582;SHT31;53438;48.898;2.308;2024-01-15T10:38:43;3.95;70.99
66582;SHT31;53438;48.898;2.308;2024-01-15T10:41:09;3.99;70.74
66582;SHT31;53438;48.898;2.308;2024-01-15T10:43:34;4.09;70.13
66582;SHT31;53438;48.898;2.308;2024-01-15T10:45:59;4.12;70.24
66582;SHT31;53438;48.898;2.308;2024-01-15T10:48:26;4.12;70.03
66582;SHT31;53438;48.898;2.308;2024-01-15T10:50:53;4.07;69.21
66582;SHT31;53438;48.898;2.308;2024-01-15T10:53:19;4.08;69.85
66582;SHT31;53438;48.898;2.308;2024-01-15T10:55:46;4.09;70.27
66582;SHT31;53438;48.898;2.308;2024-01-15T10:58:14;4.15;68.44
66582;SHT31;53438;48.898;2.308;2024-01-15T11:00:40;4.12;66.43
66582;SHT31;53438;48.898;2.308;2024-01-15T11:03:06;4.07;65.55
66582;SHT31;53438;48.898;2.308;2024-01-15T11:05:39;4.08;64.76
66582;SHT31;53438;48.898;2.308;2024-01-15T11:08:08;4.19;63.96
66582;SHT31;53438;48.898;2.308;2024-01-15T11:10:40;4.28;62.60
66582;SHT31;53438;48.898;2.308;2024-01-15T11:16:07;4.18;62.59
66582;SHT31;53438;48.898;2.308;2024-01-15T11:18:40;4.15;62.59
66582;SHT31;53438;48.898;2.308;2024-01-15T11:29:01;4.18;61.46
66582;SHT31;53438;48.898;2.308;2024-01-15T11:34:02;4.12;61.04
66582;SHT31;53438;48.898;2.308;2024-01-15T11:41:52;4.38;61.58
66582;SHT31;53438;48.898;2.308;2024-01-15T11:44:17;4.35;61.11
66582;SHT31;53438;48.898;2.308;2024-01-15T11:46:55;4.34;60.62
66582;SHT31;53438;48.898;2.308;2024-01-15T11:51:55;4.65;61.32
66582;SHT31;53438;48.898;2.308;2024-01-15T11:54:23;4.66;61.25
66582;SHT31;53438;48.898;2.308;2024-01-15T11:56:49;4.72;61.42
66582;SHT31;53438;48.898;2.308;2024-01-15T11:59:14;4.59;61.34
66582;SHT31;53438;48.898;2.308;2024-01-15T12:01:40;4.57;61.16
66582;SHT31;53438;48.898;2.308;2024-01-15T12:04:05;4.55;61.16
66582;SHT31;53438;48.898;2.308;2024-01-15T12:06:31;4.57;61.42
66582;SHT31;53438;48.898;2.308;2024-01-15T12:09:08;4.59;61.48
66582;SHT31;53438;48.898;2.308;2024-01-15T12:11:36;4.55;61.32
66582;SHT31;53438;48.898;2.308;2024-01-15T12:14:02;4.76;61.07
66582;SHT31;53438;48.898;2.308;2024-01-15T12:16:28;4.80;60.03
66582;SHT31;53438;48.898;2.308;2024-01-15T12:18:53;4.84;59.58
66582;SHT31;53438;48.898;2.308;2024-01-15T12:21:19;4.88;59.88
66582;SHT31;53438;48.898;2.308;2024-01-15T12:23:46;5.04;59.90
66582;SHT31;53438;48.898;2.308;2024-01-15T12:26:11;4.94;58.92
66582;SHT31;53438;48.898;2.308;2024-01-15T12:28:37;4.98;59.27
66582;SHT31;53438;48.898;2.308;2024-01-15T12:31:02;4.93;58.80
66582;SHT31;53438;48.898;2.308;2024-01-15T12:33:30;4.79;57.78
66582;SHT31;53438;48.898;2.308;2024-01-15T12:35:55;4.97;58.45
66582;SHT31;53438;48.898;2.308;2024-01-15T12:38:21;4.98;58.36
66582;SHT31;53438;48.898;2.308;2024-01-15T12:40:46;4.93;58.38
66582;SHT31;53438;48.898;2.308;2024-01-15T12:43:12;4.86;57.69
66582;SHT31;53438;48.898;2.308;2024-01-15T12:45:37;4.84;58.27
66582;SHT31;53438;48.898;2.308;2024-01-15T12:48:06;4.83;57.97
66582;SHT31;53438;48.898;2.308;2024-01-15T12:50:33;4.90;58.14
66582;SHT31;53438;48.898;2.308;2024-01-15T12:52:58;5.06;57.46
66582;SHT31;53438;48.898;2.308;2024-01-15T12:55:24;5.03;57.78
66582;SHT31;53438;48.898;2.308;2024-01-15T12:57:50;4.98;56.77
66582;SHT31;53438;48.898;2.308;2024-01-15T13:00:19;5.03;57.18
66582;SHT31;53438;48.898;2.308;2024-01-15T13:02:44;5.04;56.40
66582;SHT31;53438;48.898;2.308;2024-01-15T13:05:10;5.01;56.48
66582;SHT31;53438;48.898;2.308;2024-01-15T13:07:39;5.08;56.66
66582;SHT31;53438;48.898;2.308;2024-01-15T13:10:05;5.07;56.40
66582;SHT31;53438;48.898;2.308;2024-01-15T13:12:30;5.06;56.53
66582;SHT31;53438;48.898;2.308;2024-01-15T13:14:58;5.06;56.23
66582;SHT31;53438;48.898;2.308;2024-01-15T13:17:23;5.11;56.69
66582;SHT31;53438;48.898;2.308;2024-01-15T13:19:49;5.01;55.78
66582;SHT31;53438;48.898;2.308;2024-01-15T13:22:14;5.10;56.05
66582;SHT31;53438;48.898;2.308;2024-01-15T13:24:39;5.27;56.44
66582;SHT31;53438;48.898;2.308;2024-01-15T13:27:05;5.27;55.44
66582;SHT31;53438;48.898;2.308;2024-01-15T13:29:31;5.31;55.76
66582;SHT31;53438;48.898;2.308;2024-01-15T13:31:57;5.25;54.94
66582;SHT31;53438;48.898;2.308;2024-01-15T13:34:22;5.32;53.68
66582;SHT31;53438;48.898;2.308;2024-01-15T13:36:48;5.42;51.20
66582;SHT31;53438;48.898;2.308;2024-01-15T13:39:15;5.38;50.97
66582;SHT31;53438;48.898;2.308;2024-01-15T13:41:45;5.32;52.36
66582;SHT31;53438;48.898;2.308;2024-01-15T13:44:14;5.25;52.11
66582;SHT31;53438;48.898;2.308;2024-01-15T13:46:40;5.28;52.69
66582;SHT31;53438;48.898;2.308;2024-01-15T13:49:05;5.20;53.45
66582;SHT31;53438;48.898;2.308;2024-01-15T13:51:37;5.38;53.65
66582;SHT31;53438;48.898;2.308;2024-01-15T13:54:02;5.18;53.94
66582;SHT31;53438;48.898;2.308;2024-01-15T13:56:29;5.16;54.49
66582;SHT31;53438;48.898;2.308;2024-01-15T13:58:57;5.16;54.75
66582;SHT31;53438;48.898;2.308;2024-01-15T14:01:23;5.17;55.63
66582;SHT31;53438;48.898;2.308;2024-01-15T14:03:49;5.27;55.70
66582;SHT31;53438;48.898;2.308;2024-01-15T14:06:14;5.27;55.53
66582;SHT31;53438;48.898;2.308;2024-01-15T14:08:39;5.07;55.90
66582;SHT31;53438;48.898;2.308;2024-01-15T14:11:05;5.07;56.25
66582;SHT31;53438;48.898;2.308;2024-01-15T14:13:32;5.11;56.59
66582;SHT31;53438;48.898;2.308;2024-01-15T14:15:58;5.17;56.50
66582;SHT31;53438;48.898;2.308;2024-01-15T14:18:23;5.17;56.80
66582;SHT31;53438;48.898;2.308;2024-01-15T14:20:48;5.21;57.28
66582;SHT31;53438;48.898;2.308;2024-01-15T14:23:14;5.35;57.69
66582;SHT31;53438;48.898;2.308;2024-01-15T14:25:39;5.31;56.49
66582;SHT31;53438;48.898;2.308;2024-01-15T14:28:05;5.30;54.78
66582;SHT31;53438;48.898;2.308;2024-01-15T14:30:30;5.25;52.98
66582;SHT31;53438;48.898;2.308;2024-01-15T14:32:55;5.32;51.97
66582;SHT31;53438;48.898;2.308;2024-01-15T14:35:21;5.27;50.07
66582;SHT31;53438;48.898;2.308;2024-01-15T14:37:46;5.24;50.55
66582;SHT31;53438;48.898;2.308;2024-01-15T14:40:13;5.34;51.44
66582;SHT31;53438;48.898;2.308;2024-01-15T14:42:41;5.30;51.01
66582;SHT31;53438;48.898;2.308;2024-01-15T14:45:07;5.14;50.48
66582;SHT31;53438;48.898;2.308;2024-01-15T14:47:38;5.17;50.61
66582;SHT31;53438;48.898;2.308;2024-01-15T14:50:06;5.24;50.56
66582;SHT31;53438;48.898;2.308;2024-01-15T14:52:32;5.21;50.28
66582;SHT31;53438;48.898;2.308;2024-01-15T14:54:58;5.20;49.79
66582;SHT31;53438;48.898;2.308;2024-01-15T14:57:23;5.20;49.87
66582;SHT31;53438;48.898;2.308;2024-01-15T14:59:48;5.21;50.11
66582;SHT31;53438;48.898;2.308;2024-01-15T15:02:13;5.13;49.64
66582;SHT31;53438;48.898;2.308;2024-01-15T15:04:40;5.08;49.55
66582;SHT31;53438;48.898;2.308;2024-01-15T15:07:06;5.06;49.89
66582;SHT31;53438;48.898;2.308;2024-01-15T15:09:32;4.98;49.38
66582;SHT31;53438;48.898;2.308;2024-01-15T15:11:57;4.96;49.36
66582;SHT31;53438;48.898;2.308;2024-01-15T15:14:22;4.94;49.07
66582;SHT31;53438;48.898;2.308;2024-01-15T15:16:48;4.96;49.75
66582;SHT31;53438;48.898;2.308;2024-01-15T15:19:13;4.81;49.70
66582;SHT31;53438;48.898;2.308;2024-01-15T15:21:38;4.81;50.02
66582;SHT31;53438;48.898;2.308;2024-01-15T15:24:04;4.86;51.36
66582;SHT31;53438;48.898;2.308;2024-01-15T15:26:29;4.81;50.73
66582;SHT31;53438;48.898;2.308;2024-01-15T15:28:55;4.80;51.25
66582;SHT31;53438;48.898;2.308;2024-01-15T15:31:21;4.76;51.29
66582;SHT31;53438;48.898;2.308;2024-01-15T15:33:47;4.73;51.44
66582;SHT31;53438;48.898;2.308;2024-01-15T15:36:12;4.73;51.49
66582;SHT31;53438;48.898;2.308;2024-01-15T15:38:37;4.69;51.78
66582;SHT31;53438;48.898;2.308;2024-01-15T15:41:03;4.67;52.10
66582;SHT31;53438;48.898;2.308;2024-01-15T15:43:29;4.73;52.66
66582;SHT31;53438;48.898;2.308;2024-01-15T15:45:55;4.70;52.78
66582;SHT31;53438;48.898;2.308;2024-01-15T15:48:20;4.69;53.36
66582;SHT31;53438;48.898;2.308;2024-01-15T15:50:46;4.67;53.68
66582;SHT31;53438;48.898;2.308;2024-01-15T15:53:11;4.65;53.72
66582;SHT31;53438;48.898;2.308;2024-01-15T15:55:37;4.67;54.00
66582;SHT31;53438;48.898;2.308;2024-01-15T15:58:03;4.60;53.68
66582;SHT31;53438;48.898;2.308;2024-01-15T16:00:29;4.55;53.38
66582;SHT31;53438;48.898;2.308;2024-01-15T16:02:54;4.50;53.15
66582;SHT31;53438;48.898;2.308;2024-01-15T16:05:20;4.50;53.61
66582;SHT31;53438;48.898;2.308;2024-01-15T16:07:45;4.50;53.75
66582;SHT31;53438;48.898;2.308;2024-01-15T16:10:11;4.48;53.73
66582;SHT31;53438;48.898;2.308;2024-01-15T16:12:36;4.45;53.94
66582;SHT31;53438;48.898;2.308;2024-01-15T16:15:16;4.42;54.05
66582;SHT31;53438;48.898;2.308;2024-01-15T16:17:41;4.39;54.19
66582;SHT31;53438;48.898;2.308;2024-01-15T16:20:07;4.41;54.71
66582;SHT31;53438;48.898;2.308;2024-01-15T16:22:33;4.36;54.55
66582;SHT31;53438;48.898;2.308;2024-01-15T16:24:58;4.29;55.03
66582;SHT31;53438;48.898;2.308;2024-01-15T16:27:24;4.26;55.00
66582;SHT31;53438;48.898;2.308;2024-01-15T16:29:50;4.25;55.04
66582;SHT31;53438;48.898;2.308;2024-01-15T16:32:16;4.31;55.76
66582;SHT31;53438;48.898;2.308;2024-01-15T16:34:41;4.24;55.40
66582;SHT31;53438;48.898;2.308;2024-01-15T16:37:07;4.24;55.13
66582;SHT31;53438;48.898;2.308;2024-01-15T16:39:33;4.14;55.40
66582;SHT31;53438;48.898;2.308;2024-01-15T16:41:58;4.18;55.48
66582;SHT31;53438;48.898;2.308;2024-01-15T16:44:24;4.11;55.40
66582;SHT31;53438;48.898;2.308;2024-01-15T16:46:49;4.17;55.64
66582;SHT31;53438;48.898;2.308;2024-01-15T16:49:14;4.14;55.69
66582;SHT31;53438;48.898;2.308;2024-01-15T16:51:40;4.14;55.50
66582;SHT31;53438;48.898;2.308;2024-01-15T16:54:05;4.12;55.53
66582;SHT31;53438;48.898;2.308;2024-01-15T16:56:30;4.04;55.40
66582;SHT31;53438;48.898;2.308;2024-01-15T16:58:55;4.02;55.65
66582;SHT31;53438;48.898;2.308;2024-01-15T17:01:21;4.01;55.68
66582;SHT31;53438;48.898;2.308;2024-01-15T17:03:46;3.99;55.59
66582;SHT31;53438;48.898;2.308;2024-01-15T17:06:11;4.07;55.65
66582;SHT31;53438;48.898;2.308;2024-01-15T17:08:37;4.01;55.73
66582;SHT31;53438;48.898;2.308;2024-01-15T17:11:02;3.98;55.45
66582;SHT31;53438;48.898;2.308;2024-01-15T17:13:28;3.94;55.83
66582;SHT31;53438;48.898;2.308;2024-01-15T17:15:53;4.05;56.41
66582;SHT31;53438;48.898;2.308;2024-01-15T17:18:20;4.05;55.94
66582;SHT31;53438;48.898;2.308;2024-01-15T17:20:46;3.94;55.97
66582;SHT31;53438;48.898;2.308;2024-01-15T17:23:13;3.93;56.06
66582;SHT31;53438;48.898;2.308;2024-01-15T17:25:39;3.94;56.40
66582;SHT31;53438;48.898;2.308;2024-01-15T17:28:04;3.94;56.43
66582;SHT31;53438;48.898;2.308;2024-01-15T17:30:29;3.86;56.82
66582;SHT31;53438;48.898;2.308;2024-01-15T17:32:56;3.90;56.69
66582;SHT31;53438;48.898;2.308;2024-01-15T17:35:21;3.91;57.00
66582;SHT31;53438;48.898;2.308;2024-01-15T17:37:47;3.80;56.97
66582;SHT31;53438;48.898;2.308;2024-01-15T17:40:12;3.87;57.21
66582;SHT31;53438;48.898;2.308;2024-01-15T17:42:38;3.86;57.60
66582;SHT31;53438;48.898;2.308;2024-01-15T17:45:03;3.94;57.69
66582;SHT31;53438;48.898;2.308;2024-01-15T17:47:29;4.01;58.22
66582;SHT31;53438;48.898;2.308;2024-01-15T17:49:55;4.05;58.29
66582;SHT31;53438;48.898;2.308;2024-01-15T17:52:20;4.05;58.11
66582;SHT31;53438;48.898;2.308;2024-01-15T17:54:45;4.07;58.21
66582;SHT31;53438;48.898;2.308;2024-01-15T17:57:11;3.94;57.97
66582;SHT31;53438;48.898;2.308;2024-01-15T17:59:36;3.83;57.88
66582;SHT31;53438;48.898;2.308;2024-01-15T18:02:01;3.81;58.07
66582;SHT31;53438;48.898;2.308;2024-01-15T18:04:27;3.77;58.34
66582;SHT31;53438;48.898;2.308;2024-01-15T18:06:52;3.83;58.43
66582;SHT31;53438;48.898;2.308;2024-01-15T18:09:18;3.88;58.73
66582;SHT31;53438;48.898;2.308;2024-01-15T18:11:44;3.87;58.81
66582;SHT31;53438;48.898;2.308;2024-01-15T18:14:10;3.88;58.80
66582;SHT31;53438;48.898;2.308;2024-01-15T18:16:35;3.86;58.57
66582;SHT31;53438;48.898;2.308;2024-01-15T18:19:01;3.80;58.55
66582;SHT31;53438;48.898;2.308;2024-01-15T18:21:26;3.70;58.74
66582;SHT31;53438;48.898;2.308;2024-01-15T18:23:51;3.73;59.12
66582;SHT31;53438;48.898;2.308;2024-01-15T18:26:17;3.64;59.08
66582;SHT31;53438;48.898;2.308;2024-01-15T18:28:42;3.71;59.65
66582;SHT31;53438;48.898;2.308;2024-01-15T18:31:08;3.63;59.37
66582;SHT31;53438;48.898;2.308;2024-01-15T18:33:36;3.59;59.27
66582;SHT31;53438;48.898;2.308;2024-01-15T18:36:05;3.57;59.35
66582;SHT31;53438;48.898;2.308;2024-01-15T18:38:34;3.53;59.11
66582;SHT31;53438;48.898;2.308;2024-01-15T18:41:00;3.53;59.40
66582;SHT31;53438;48.898;2.308;2024-01-15T18:43:27;3.52;59.55
66582;SHT31;53438;48.898;2.308;2024-01-15T18:45:53;3.53;59.50
66582;SHT31;53438;48.898;2.308;2024-01-15T18:48:18;3.49;59.74
66582;SHT31;53438;48.898;2.308;2024-01-15T18:50:43;3.59;60.20
66582;SHT31;53438;48.898;2.308;2024-01-15T18:53:09;3.62;60.40
66582;SHT31;53438;48.898;2.308;2024-01-15T18:55:34;3.67;60.52
66582;SHT31;53438;48.898;2.308;2024-01-15T18:57:59;3.71;60.56